Terminal Aerodrome Forecast
Issued by NWS Charleston, WV

Current Version | Previous Version | Text Only | Print | Product List | Glossary Off
Versions: 1 2 3 4 5 6 7 8 9 10 11 12 13 14 15 16 17 18 19 20 21 22 23

706
FTUS41 KRLX 231720
TAFBKW
TAF
KBKW 231720Z 2318/2418 35005KT P6SM SCT040
     FM240000 00000KT P6SM SKC
     FM241600 32004KT P6SM SCT040=

USA.gov is the U.S. government's official web portal to all federal, state and local government web resources and services.